Mobile Regional Airport

Date: 2024-06-11 03:56:00Z

Type: METAR

Weather: Thunderstorms, Gusty Winds

Winds: 280° at 11 kts, Gusting to 19 kts

Visibility: 2.5

Ceiling (AGL FT): Clouds OVERCAST at 3300, FEW at 25000, BROKEN at 25000, OVERCAST at 4500

RAW METAR: KMOB 110356Z 28011G19KT 2 1/2SM TS OVC033CB 24/23 A2988 RMK SLP113 FRQ LTGICCC ALQDS TS ALQDS MOV SE P0012 T02440233

project-image